< < Back
Terminal Aerodrome Forecast


Current Version              Previous Versions:   1  2  3  4  5  6  7  8  9  

Terminal Aerodrome Forecast

477
FTUS44 KMOB 310000 RRA
TAFMOB
TAF
KMOB 310000Z 3100/3124 04010KT P6SM VCTS SCT025CB BKN050 OVC250
      TEMPO 3100/3102 VRB15G25KT 3SM TSRA BKN035CB OVC050
     FM310200 02006KT P6SM BKN250=

Latest METAR

790
SAUS80 KWBC 310100
MTRMOB
METAR KMOB 310056Z 32005KT 5SM VCTS -RA BR FEW025 SCT045 BKN065 24/23
A2997 RMK AO2 PK WND 01039/0008 LTG DSNT ALQDS RAB09 TSE55
SLP145 P0017 T02390228


USA.gov is the U.S. government's official web portal to all federal, state and local government web resources and services.